Time;durP1;ratioP1;P1;durP2;ratioP2;P2;SDS_P1;SDS_P2;PMS_P1;PMS_P2;Temp;Humidity;BMP_temperature;BMP_pressure;BME280_temperature;BME280_humidity;BME280_pressure;Samples;Min_cycle;Max_cycle;Signal;HPM_P1;HPM_P2
2023/02/11 00:00:06;;;;;;;27.27;9.45;;;6.90;99.90;;;;;;5020809;28;20069;-63
2023/02/11 00:02:33;;;;;;;26.83;8.57;;;6.90;99.90;;;;;;5016290;28;20092;-65
2023/02/11 00:05:02;;;;;;;21.90;8.05;;;7.00;99.90;;;;;;5029213;28;20037;-65
2023/02/11 00:07:31;;;;;;;22.75;7.97;;;6.90;99.90;;;;;;4990024;28;20046;-65
2023/02/11 00:09:57;;;;;;;20.80;7.53;;;6.90;99.90;;;;;;5008523;28;20037;-65
2023/02/11 00:12:22;;;;;;;25.23;7.80;;;7.00;99.90;;;;;;5000522;28;20046;-65
2023/02/11 00:14:48;;;;;;;25.98;8.25;;;7.00;99.90;;;;;;5028199;28;20048;-65
2023/02/11 00:17:14;;;;;;;25.15;7.95;;;6.90;99.90;;;;;;5019830;28;20377;-63
2023/02/11 00:19:40;;;;;;;29.92;7.80;;;6.90;99.90;;;;;;4997097;28;20029;-63
2023/02/11 00:22:06;;;;;;;24.88;7.07;;;6.90;99.90;;;;;;5019775;28;20496;-63
2023/02/11 00:24:31;;;;;;;21.77;7.75;;;6.90;99.90;;;;;;5026856;28;20120;-64
2023/02/11 00:26:57;;;;;;;22.02;7.13;;;6.90;99.90;;;;;;5003405;28;20061;-63
2023/02/11 00:29:23;;;;;;;27.05;7.60;;;7.00;99.90;;;;;;5017927;28;20380;-64
2023/02/11 00:31:49;;;;;;;23.38;7.00;;;7.00;99.90;;;;;;5018317;28;20040;-64
2023/02/11 00:34:14;;;;;;;24.48;6.68;;;7.00;99.90;;;;;;5002093;28;20105;-66
2023/02/11 00:36:40;;;;;;;19.17;6.28;;;7.00;99.90;;;;;;5017852;28;20044;-64
2023/02/11 00:39:06;;;;;;;23.63;6.80;;;6.90;99.90;;;;;;5019795;28;20072;-63
2023/02/11 00:41:32;;;;;;;23.58;6.97;;;7.00;99.90;;;;;;5012085;28;20045;-64
2023/02/11 00:43:59;;;;;;;21.65;6.40;;;7.00;99.90;;;;;;4997093;28;20095;-63
2023/02/11 00:46:24;;;;;;;21.48;6.63;;;7.10;99.90;;;;;;5008538;28;20044;-64
2023/02/11 00:48:52;;;;;;;21.77;6.20;;;6.90;99.90;;;;;;5018133;28;20423;-64
2023/02/11 00:51:17;;;;;;;24.05;6.30;;;6.90;99.90;;;;;;4997538;28;20049;-63
2023/02/11 00:53:43;;;;;;;19.10;6.43;;;6.90;99.90;;;;;;5026973;28;20046;-63
2023/02/11 00:56:09;;;;;;;20.27;6.32;;;6.90;99.90;;;;;;5033306;28;20193;-63
2023/02/11 00:58:35;;;;;;;26.83;6.63;;;6.90;99.90;;;;;;5026440;28;20038;-64
2023/02/11 01:01:02;;;;;;;19.70;6.20;;;6.90;99.90;;;;;;5018518;28;20029;-64
2023/02/11 01:03:27;;;;;;;19.30;5.60;;;6.90;99.90;;;;;;5012520;28;20435;-65
2023/02/11 01:05:53;;;;;;;19.17;5.78;;;6.90;99.90;;;;;;5031994;28;20169;-64
2023/02/11 01:08:19;;;;;;;19.60;5.35;;;6.80;99.90;;;;;;5014092;28;20168;-63
2023/02/11 01:10:44;;;;;;;26.02;6.53;;;6.80;99.90;;;;;;5003115;28;20342;-63
2023/02/11 01:13:10;;;;;;;23.48;6.65;;;6.80;99.90;;;;;;5015620;28;20070;-64
2023/02/11 01:15:36;;;;;;;23.60;6.00;;;6.80;99.90;;;;;;5010871;28;20113;-63
2023/02/11 01:18:04;;;;;;;23.88;5.88;;;6.70;99.90;;;;;;5017034;28;20168;-63
2023/02/11 01:20:29;;;;;;;17.55;5.90;;;6.80;99.90;;;;;;5019674;28;20455;-62
2023/02/11 01:22:55;;;;;;;23.13;6.00;;;6.70;99.90;;;;;;5025879;28;20180;-61
2023/02/11 01:25:21;;;;;;;23.95;6.30;;;6.70;99.90;;;;;;5009788;28;20095;-62
2023/02/11 01:27:46;;;;;;;29.70;6.78;;;6.80;99.90;;;;;;5025648;28;20046;-63
2023/02/11 01:30:13;;;;;;;20.65;6.18;;;6.80;99.90;;;;;;5013043;28;20049;-62
2023/02/11 01:32:39;;;;;;;22.60;6.75;;;6.80;99.90;;;;;;5023672;28;20079;-62
2023/02/11 01:35:05;;;;;;;25.92;6.60;;;6.80;99.90;;;;;;5023940;28;20088;-62
2023/02/11 01:37:35;;;;;;;20.05;6.00;;;6.80;99.90;;;;;;5019072;28;20049;-62
2023/02/11 01:40:02;;;;;;;24.45;6.47;;;6.90;99.90;;;;;;5013085;28;20544;-63
2023/02/11 01:42:28;;;;;;;21.38;6.50;;;6.90;99.90;;;;;;5020296;28;20034;-62
2023/02/11 01:44:56;;;;;;;24.35;6.18;;;6.80;99.90;;;;;;5013257;28;20085;-62
2023/02/11 01:47:22;;;;;;;18.75;5.40;;;6.80;99.90;;;;;;5022732;28;20029;-62
2023/02/11 01:49:56;;;;;;;24.45;5.45;;;6.80;99.90;;;;;;4999348;28;20510;-62
2023/02/11 01:52:37;;;;;;;26.63;6.28;;;6.90;99.90;;;;;;5044955;28;20096;-62
2023/02/11 01:57:58;;;;;;;16.90;5.50;;;7.00;99.90;;;;;;5029767;28;20046;-63
2023/02/11 02:00:36;;;;;;;16.05;5.70;;;6.90;99.90;;;;;;5027059;28;20113;-62
2023/02/11 02:03:07;;;;;;;29.45;6.55;;;6.90;99.90;;;;;;5012125;28;20184;-62
2023/02/11 02:05:38;;;;;;;20.33;5.70;;;6.90;99.90;;;;;;5024208;28;20311;-62
2023/02/11 02:08:15;;;;;;;21.35;6.18;;;6.90;99.90;;;;;;5019806;28;20041;-65
2023/02/11 02:10:44;;;;;;;19.02;6.10;;;6.90;99.90;;;;;;5027397;28;20067;-62
2023/02/11 02:13:10;;;;;;;18.38;6.28;;;6.90;99.90;;;;;;5023093;28;20049;-65
2023/02/11 02:15:38;;;;;;;20.00;6.05;;;6.90;99.90;;;;;;5012347;28;20407;-63
2023/02/11 02:18:47;;;;;;;22.00;6.57;;;6.90;99.90;;;;;;5011300;28;20069;-62
2023/02/11 02:21:50;;;;;;;27.17;6.53;;;6.90;99.90;;;;;;5014714;28;20042;-63
2023/02/11 02:24:45;;;;;;;22.52;6.38;;;6.90;99.90;;;;;;5028989;28;20045;-64
2023/02/11 02:27:37;;;;;;;18.48;6.22;;;6.90;99.90;;;;;;5013315;28;20078;-63
2023/02/11 02:30:31;;;;;;;23.95;6.15;;;6.90;99.90;;;;;;5016515;28;20463;-63
2023/02/11 02:33:30;;;;;;;27.23;7.07;;;6.90;99.90;;;;;;5015445;28;20048;-63
2023/02/11 02:36:13;;;;;;;25.30;6.90;;;6.90;99.90;;;;;;5003919;28;20547;-64
2023/02/11 02:38:42;;;;;;;23.15;6.95;;;6.90;99.90;;;;;;5005033;28;20037;-63
2023/02/11 02:41:15;;;;;;;20.23;7.10;;;6.90;99.90;;;;;;5015869;28;20037;-62
2023/02/11 02:43:44;;;;;;;23.95;6.80;;;7.00;99.90;;;;;;5009398;28;20128;-62
2023/02/11 02:46:16;;;;;;;24.40;7.00;;;7.00;99.90;;;;;;5007869;28;20128;-62
2023/02/11 02:48:42;;;;;;;28.17;8.23;;;7.00;99.90;;;;;;5020534;28;20029;-63
2023/02/11 02:51:24;;;;;;;23.45;7.65;;;7.00;99.90;;;;;;5013590;28;20507;-62
2023/02/11 02:53:56;;;;;;;24.85;7.32;;;7.00;99.90;;;;;;5013151;28;20070;-62
2023/02/11 02:56:44;;;;;;;26.00;7.70;;;7.00;99.90;;;;;;5012464;28;20041;-62
2023/02/11 02:59:30;;;;;;;30.02;9.20;;;7.10;99.90;;;;;;5010864;28;20072;-62
2023/02/11 03:02:21;;;;;;;27.45;8.63;;;7.00;99.90;;;;;;4986305;28;20045;-62
2023/02/11 03:05:08;;;;;;;27.90;8.13;;;7.00;99.90;;;;;;5014098;28;20046;-63
2023/02/11 03:07:55;;;;;;;23.10;8.25;;;7.00;99.90;;;;;;5021594;28;20044;-63
2023/02/11 03:10:29;;;;;;;26.42;9.35;;;7.00;99.90;;;;;;5015475;28;20496;-64
2023/02/11 03:12:56;;;;;;;29.95;9.23;;;7.00;99.90;;;;;;5018411;28;20087;-65
2023/02/11 03:15:24;;;;;;;25.15;8.75;;;7.10;99.90;;;;;;5010910;28;20072;-63
2023/02/11 03:17:53;;;;;;;31.83;9.43;;;7.00;99.90;;;;;;5021576;28;20048;-63
2023/02/11 03:20:21;;;;;;;28.13;9.50;;;7.00;99.90;;;;;;5005339;28;20076;-63
2023/02/11 03:23:07;;;;;;;26.83;8.93;;;7.10;99.90;;;;;;5030811;28;20147;-63
2023/02/11 03:25:40;;;;;;;29.52;9.77;;;7.10;99.90;;;;;;5006260;28;20179;-65
2023/02/11 03:28:21;;;;;;;28.63;10.18;;;7.10;99.90;;;;;;5004413;28;20049;-63
2023/02/11 03:30:54;;;;;;;26.95;10.30;;;7.10;99.90;;;;;;5017785;28;20046;-63
2023/02/11 03:33:34;;;;;;;33.83;10.20;;;7.10;99.90;;;;;;5009592;28;20048;-64
2023/02/11 03:36:05;;;;;;;26.35;10.05;;;7.10;99.90;;;;;;5019293;28;20132;-65
2023/02/11 03:38:43;;;;;;;28.40;9.93;;;7.10;99.90;;;;;;5011981;28;20053;-62
2023/02/11 03:41:12;;;;;;;35.85;11.02;;;7.00;99.90;;;;;;5002597;28;20113;-63
2023/02/11 03:43:43;;;;;;;29.73;10.63;;;7.10;99.90;;;;;;4994595;28;20045;-63
2023/02/11 03:46:11;;;;;;;31.20;11.57;;;7.10;99.90;;;;;;5004616;28;20119;-63
2023/02/11 03:48:43;;;;;;;32.67;11.80;;;7.10;99.90;;;;;;5017360;28;20040;-63
2023/02/11 03:51:11;;;;;;;;;;;7.10;99.90;;;;;;5001655;28;20049;-63
2023/02/11 03:53:40;;;;;;;31.67;12.52;;;7.10;99.90;;;;;;5015755;28;19917;-65
2023/02/11 03:56:09;;;;;;;29.40;11.98;;;7.10;99.90;;;;;;5021526;28;20064;-63
2023/02/11 03:58:35;;;;;;;34.83;11.55;;;7.10;99.90;;;;;;5014878;28;20396;-63
2023/02/11 04:01:01;;;;;;;31.65;12.32;;;7.10;99.90;;;;;;5019424;28;20124;-64
2023/02/11 04:03:27;;;;;;;33.03;13.07;;;7.10;99.90;;;;;;5009576;28;20550;-63
2023/02/11 04:05:53;;;;;;;29.48;12.68;;;7.10;99.90;;;;;;5015485;28;20042;-64
2023/02/11 04:08:19;;;;;;;33.17;13.05;;;7.10;99.90;;;;;;5010705;28;20061;-63
2023/02/11 04:10:45;;;;;;;30.20;13.85;;;7.00;99.90;;;;;;5004227;28;20037;-65
2023/02/11 04:13:10;;;;;;;37.63;13.73;;;7.00;99.90;;;;;;5022526;28;20037;-64
2023/02/11 04:15:36;;;;;;;33.15;14.25;;;7.00;99.90;;;;;;5012869;28;20037;-63
2023/02/11 04:18:02;;;;;;;34.05;13.52;;;7.10;99.90;;;;;;5024062;28;20052;-63
2023/02/11 04:20:28;;;;;;;35.65;14.02;;;7.00;99.90;;;;;;5017771;28;20034;-63
2023/02/11 04:22:54;;;;;;;44.08;14.75;;;7.00;99.90;;;;;;5008830;28;20056;-63
2023/02/11 04:25:20;;;;;;;34.72;14.52;;;7.00;99.90;;;;;;5012470;28;20045;-63
2023/02/11 04:27:45;;;;;;;33.90;14.55;;;7.00;99.90;;;;;;5024570;28;20029;-64
2023/02/11 04:30:12;;;;;;;36.92;15.63;;;6.90;99.90;;;;;;5013066;28;20041;-63
2023/02/11 04:32:37;;;;;;;45.95;15.63;;;7.00;99.90;;;;;;5013617;28;20080;-64
2023/02/11 04:35:04;;;;;;;35.20;14.85;;;6.90;99.90;;;;;;5010427;28;20064;-63
2023/02/11 04:37:29;;;;;;;35.67;16.05;;;6.90;99.90;;;;;;5015691;28;20084;-63
2023/02/11 04:39:55;;;;;;;49.42;16.27;;;6.90;99.90;;;;;;5009991;28;20500;-63
2023/02/11 04:42:20;;;;;;;38.33;14.63;;;7.00;99.90;;;;;;5004347;28;20116;-63
2023/02/11 04:44:46;;;;;;;36.05;15.20;;;6.90;99.90;;;;;;5011375;28;20053;-63
2023/02/11 04:47:14;;;;;;;38.33;15.30;;;6.90;99.90;;;;;;5015965;28;20042;-65
2023/02/11 04:49:40;;;;;;;41.35;16.25;;;6.80;99.90;;;;;;5003162;28;20041;-63
2023/02/11 04:52:06;;;;;;;36.90;15.52;;;6.90;99.90;;;;;;5002611;28;20492;-63
2023/02/11 04:54:31;;;;;;;35.95;14.90;;;6.90;99.90;;;;;;5007173;28;20077;-63
2023/02/11 04:56:57;;;;;;;34.42;15.00;;;7.00;99.90;;;;;;5009739;28;20404;-62
2023/02/11 04:59:23;;;;;;;43.15;15.73;;;6.90;99.90;;;;;;5008184;28;20125;-63
2023/02/11 05:01:48;;;;;;;41.28;15.98;;;6.90;99.90;;;;;;5005895;28;20042;-63
2023/02/11 05:04:15;;;;;;;44.45;17.92;;;6.90;99.90;;;;;;5022904;28;20038;-65
2023/02/11 05:06:41;;;;;;;36.83;16.67;;;6.90;99.90;;;;;;5019417;28;20124;-63
2023/02/11 05:09:07;;;;;;;39.60;18.17;;;6.90;99.90;;;;;;5001767;28;20160;-65
2023/02/11 05:11:33;;;;;;;44.28;17.55;;;6.90;99.90;;;;;;5006888;28;20061;-64
2023/02/11 05:13:58;;;;;;;41.53;17.52;;;6.90;99.90;;;;;;5004544;28;20122;-62
2023/02/11 05:16:24;;;;;;;39.10;17.80;;;6.90;99.90;;;;;;5014140;28;20309;-62
2023/02/11 05:18:49;;;;;;;40.13;17.80;;;6.90;99.90;;;;;;5020825;28;20489;-62
2023/02/11 05:21:17;;;;;;;45.75;19.38;;;6.90;99.90;;;;;;5013728;28;20038;-63
2023/02/11 05:23:44;;;;;;;47.40;19.95;;;6.90;99.90;;;;;;5012055;28;20232;-63
2023/02/11 05:26:11;;;;;;;45.38;19.40;;;6.90;99.90;;;;;;5018180;28;20034;-62
2023/02/11 05:28:36;;;;;;;45.38;19.40;;;6.90;99.90;;;;;;5020082;28;20049;-62
2023/02/11 05:31:02;;;;;;;44.25;19.77;;;6.90;99.90;;;;;;5020908;28;20037;-62
2023/02/11 05:33:28;;;;;;;48.38;20.25;;;6.90;99.90;;;;;;5003552;28;20033;-63
2023/02/11 05:35:58;;;;;;;48.90;20.55;;;7.00;99.90;;;;;;5013225;28;20034;-64
2023/02/11 05:38:24;;;;;;;48.50;21.63;;;7.00;99.90;;;;;;5017589;28;20030;-63
2023/02/11 05:40:50;;;;;;;51.33;22.08;;;7.00;99.90;;;;;;5010468;28;20137;-63
2023/02/11 05:43:16;;;;;;;51.92;21.70;;;7.10;99.90;;;;;;5013417;28;20042;-63
2023/02/11 05:45:41;;;;;;;50.70;21.83;;;7.00;99.90;;;;;;5016534;28;20397;-65
2023/02/11 05:48:07;;;;;;;50.80;20.95;;;7.00;99.90;;;;;;5014562;28;20037;-63
2023/02/11 05:50:32;;;;;;;42.83;20.00;;;7.10;99.90;;;;;;5015769;28;20121;-62
2023/02/11 05:52:58;;;;;;;43.28;20.05;;;7.10;99.90;;;;;;5021011;28;20033;-63
2023/02/11 05:55:24;;;;;;;44.03;19.77;;;7.20;99.90;;;;;;5020251;28;20121;-65
2023/02/11 05:57:49;;;;;;;48.30;20.88;;;7.10;99.90;;;;;;5007866;28;20042;-63
2023/02/11 06:00:15;;;;;;;47.63;19.67;;;7.10;99.90;;;;;;5011061;28;20041;-64
2023/02/11 06:02:41;;;;;;;50.58;21.08;;;7.20;99.90;;;;;;5024298;28;20408;-63
2023/02/11 06:05:08;;;;;;;44.72;20.33;;;7.10;99.90;;;;;;5016358;28;20936;-64
2023/02/11 06:07:33;;;;;;;44.53;20.23;;;7.20;99.90;;;;;;5016415;28;20119;-63
2023/02/11 06:09:59;;;;;;;43.20;19.75;;;7.10;99.90;;;;;;5024220;28;20072;-63
2023/02/11 06:12:25;;;;;;;45.45;18.15;;;7.20;99.90;;;;;;5006190;28;20045;-62
2023/02/11 06:14:51;;;;;;;46.78;21.85;;;7.20;99.90;;;;;;5006605;28;20579;-64
2023/02/11 06:17:17;;;;;;;46.90;20.02;;;7.10;99.90;;;;;;5006570;28;20084;-64
2023/02/11 06:19:43;;;;;;;41.72;20.48;;;7.10;99.90;;;;;;5031076;28;20128;-64
2023/02/11 06:22:09;;;;;;;50.58;20.58;;;7.20;99.90;;;;;;5004373;28;20041;-64
2023/02/11 06:24:35;;;;;;;48.28;20.23;;;7.20;99.90;;;;;;5012785;28;20563;-64
2023/02/11 06:27:02;;;;;;;45.03;20.83;;;7.20;99.90;;;;;;5014953;28;20112;-64
2023/02/11 06:29:28;;;;;;;46.45;19.75;;;7.10;99.90;;;;;;5003933;28;20080;-65
2023/02/11 06:31:54;;;;;;;48.15;20.15;;;7.20;99.90;;;;;;5017373;28;20570;-64
2023/02/11 06:34:19;;;;;;;41.28;18.75;;;7.20;99.90;;;;;;5016349;28;20033;-64
2023/02/11 06:36:45;;;;;;;45.55;20.50;;;7.20;99.90;;;;;;5022670;28;20048;-63
2023/02/11 06:39:12;;;;;;;47.53;19.60;;;7.20;99.90;;;;;;5004597;28;20122;-65
2023/02/11 06:41:37;;;;;;;39.15;19.67;;;7.20;99.90;;;;;;5020372;28;20459;-64
2023/02/11 06:44:03;;;;;;;46.28;20.25;;;7.20;99.90;;;;;;5019160;28;20041;-63
2023/02/11 06:46:29;;;;;;;45.28;19.10;;;7.30;99.90;;;;;;5019977;28;20037;-64
2023/02/11 06:48:54;;;;;;;41.10;19.95;;;7.20;99.90;;;;;;5013912;28;20044;-64
2023/02/11 06:51:20;;;;;;;44.47;20.10;;;7.20;99.90;;;;;;5016594;28;20037;-65
2023/02/11 06:53:46;;;;;;;46.03;19.77;;;7.20;99.90;;;;;;5013605;28;20463;-64
2023/02/11 06:56:14;;;;;;;47.88;21.55;;;7.20;99.90;;;;;;5015290;28;20476;-64
2023/02/11 06:58:40;;;;;;;50.45;20.02;;;7.20;99.90;;;;;;5015430;28;20129;-65
2023/02/11 07:01:08;;;;;;;42.22;20.25;;;7.30;99.90;;;;;;5002898;28;20113;-64
2023/02/11 07:03:38;;;;;;;51.88;21.92;;;7.20;99.90;;;;;;5010467;28;20051;-64
2023/02/11 07:06:06;;;;;;;49.35;21.25;;;7.30;99.90;;;;;;5021337;28;20038;-64
2023/02/11 07:08:33;;;;;;;50.72;21.65;;;7.20;99.90;;;;;;5013240;28;20505;-64
2023/02/11 07:10:59;;;;;;;50.45;21.45;;;7.20;99.90;;;;;;5010068;28;20052;-64
2023/02/11 07:13:24;;;;;;;46.60;22.13;;;7.20;99.90;;;;;;5015633;28;20037;-65
2023/02/11 07:15:50;;;;;;;50.78;22.67;;;7.20;99.90;;;;;;5015327;28;20065;-63
2023/02/11 07:18:16;;;;;;;52.75;22.10;;;7.30;99.90;;;;;;4997891;28;20065;-63
2023/02/11 07:20:42;;;;;;;50.35;22.48;;;7.30;99.90;;;;;;5016891;28;20051;-64
2023/02/11 07:23:07;;;;;;;46.47;22.73;;;7.30;99.90;;;;;;5003527;28;20583;-65
2023/02/11 07:25:34;;;;;;;41.40;22.05;;;7.30;99.90;;;;;;5016830;28;20037;-64
2023/02/11 07:28:00;;;;;;;50.17;22.10;;;7.40;99.90;;;;;;5004214;28;20512;-64
2023/02/11 07:30:25;;;;;;;50.97;23.13;;;7.40;99.90;;;;;;5016156;28;20037;-64
2023/02/11 07:32:51;;;;;;;47.97;21.15;;;7.40;99.90;;;;;;5018297;28;20049;-64
2023/02/11 07:35:17;;;;;;;48.70;23.00;;;7.40;99.90;;;;;;5012797;28;20045;-64
2023/02/11 07:37:42;;;;;;;49.50;23.00;;;7.40;99.90;;;;;;5021522;28;20136;-64
2023/02/11 07:40:08;;;;;;;48.03;23.38;;;7.40;99.90;;;;;;5022699;28;20041;-64
2023/02/11 07:42:34;;;;;;;50.15;21.38;;;7.40;99.90;;;;;;5020010;28;20046;-65
2023/02/11 07:45:00;;;;;;;44.47;21.20;;;7.40;99.90;;;;;;5014621;28;20029;-64
2023/02/11 07:47:26;;;;;;;46.22;22.70;;;7.40;99.90;;;;;;5023877;28;20037;-64
2023/02/11 07:49:51;;;;;;;50.20;23.63;;;7.40;99.90;;;;;;5028140;28;20042;-64
2023/02/11 07:52:17;;;;;;;47.67;22.98;;;7.50;99.90;;;;;;5008264;28;20107;-64
2023/02/11 07:54:43;;;;;;;48.65;22.50;;;7.50;99.90;;;;;;5016911;28;20092;-65
2023/02/11 07:57:08;;;;;;;49.33;22.63;;;7.50;99.90;;;;;;5017330;28;20060;-64
2023/02/11 07:59:34;;;;;;;46.45;21.95;;;7.50;99.90;;;;;;5012120;28;20049;-65
2023/02/11 08:02:00;;;;;;;42.03;20.70;;;7.50;99.90;;;;;;5003741;28;20071;-64
2023/02/11 08:04:25;;;;;;;47.33;20.20;;;7.50;99.90;;;;;;5025499;28;20113;-64
2023/02/11 08:06:53;;;;;;;44.88;21.85;;;7.50;99.90;;;;;;5007975;28;20048;-65
2023/02/11 08:09:18;;;;;;;51.47;22.00;;;7.60;99.90;;;;;;5025572;28;20088;-64
2023/02/11 08:11:44;;;;;;;46.35;21.02;;;7.60;99.90;;;;;;5025423;28;20037;-65
2023/02/11 08:14:11;;;;;;;46.75;22.27;;;7.60;99.90;;;;;;5022867;28;20380;-64
2023/02/11 08:16:38;;;;;;;46.95;22.08;;;7.60;99.90;;;;;;5016194;28;20373;-64
2023/02/11 08:19:06;;;;;;;46.50;21.73;;;7.60;99.90;;;;;;5019945;28;20038;-65
2023/02/11 08:21:32;;;;;;;44.25;21.20;;;7.70;99.90;;;;;;5008760;28;20091;-64
2023/02/11 08:24:00;;;;;;;43.30;21.13;;;7.70;99.90;;;;;;5032138;28;20404;-64
2023/02/11 08:26:30;;;;;;;52.05;23.15;;;7.70;99.90;;;;;;4996463;28;20326;-64
2023/02/11 08:28:56;;;;;;;42.97;19.73;;;7.80;99.90;;;;;;4981496;28;20046;-65
2023/02/11 08:31:32;;;;;;;41.63;21.48;;;7.80;99.90;;;;;;5022146;28;20484;-64
2023/02/11 08:33:57;;;;;;;47.78;20.67;;;7.80;99.90;;;;;;5025188;28;20519;-65
2023/02/11 08:36:27;;;;;;;45.65;21.13;;;7.80;99.90;;;;;;5013636;28;20045;-64
2023/02/11 08:38:55;;;;;;;41.47;19.70;;;7.80;99.90;;;;;;5011005;28;20407;-64
2023/02/11 08:41:20;;;;;;;43.55;21.27;;;7.80;99.90;;;;;;5008091;28;20042;-64
2023/02/11 08:43:46;;;;;;;38.95;20.05;;;7.80;99.90;;;;;;5021808;28;20377;-64
2023/02/11 08:46:17;;;;;;;39.00;19.92;;;7.80;99.90;;;;;;5011196;28;20542;-65
2023/02/11 08:48:44;;;;;;;46.80;19.98;;;7.80;99.90;;;;;;5011855;28;20100;-64
2023/02/11 08:51:20;;;;;;;40.17;21.05;;;7.90;99.90;;;;;;5015847;28;20507;-64
2023/02/11 08:53:46;;;;;;;39.88;19.33;;;7.90;99.90;;;;;;5003409;28;20042;-64
2023/02/11 08:56:19;;;;;;;39.25;20.08;;;7.90;99.90;;;;;;5013488;28;20739;-64
2023/02/11 08:58:44;;;;;;;39.70;19.73;;;7.90;99.90;;;;;;5015817;28;20073;-64
2023/02/11 09:01:12;;;;;;;39.47;19.27;;;7.90;99.90;;;;;;5025236;28;20061;-64
2023/02/11 09:03:38;;;;;;;39.53;20.70;;;7.90;99.90;;;;;;5009383;28;20046;-64
2023/02/11 09:06:05;;;;;;;41.78;19.55;;;7.90;99.90;;;;;;5011500;28;20083;-64
2023/02/11 09:08:34;;;;;;;37.33;18.75;;;8.00;99.90;;;;;;5009275;28;20124;-63
2023/02/11 09:11:00;;;;;;;40.90;19.52;;;8.00;99.90;;;;;;5025373;28;20045;-64
2023/02/11 09:13:26;;;;;;;42.75;19.67;;;8.00;99.90;;;;;;5025691;28;20038;-64
2023/02/11 09:15:52;;;;;;;34.78;17.67;;;8.10;99.90;;;;;;5012186;28;20133;-65
2023/02/11 09:18:18;;;;;;;33.92;17.42;;;8.10;99.90;;;;;;5031693;28;20107;-64
2023/02/11 09:20:43;;;;;;;37.10;16.92;;;8.10;99.90;;;;;;5025470;28;20140;-64
2023/02/11 09:23:09;;;;;;;35.38;16.83;;;8.30;99.90;;;;;;5000176;28;20046;-64
2023/02/11 09:25:37;;;;;;;35.42;17.55;;;8.20;99.90;;;;;;5020642;28;20403;-64
2023/02/11 09:28:03;;;;;;;37.45;17.98;;;8.20;99.90;;;;;;5026614;28;20196;-65
2023/02/11 09:30:28;;;;;;;36.83;16.75;;;8.20;99.90;;;;;;5010934;28;20109;-64
2023/02/11 09:32:54;;;;;;;33.05;17.08;;;8.20;99.90;;;;;;5010298;28;20049;-64
2023/02/11 09:35:20;;;;;;;31.65;16.15;;;8.20;99.90;;;;;;5024567;28;20065;-63
2023/02/11 09:37:45;;;;;;;31.73;15.70;;;8.30;99.90;;;;;;5009756;28;20516;-64
2023/02/11 09:40:13;;;;;;;29.05;14.73;;;8.40;99.90;;;;;;5018590;28;20036;-64
2023/02/11 09:42:45;;;;;;;29.23;14.88;;;8.50;99.90;;;;;;5009237;28;20060;-63
2023/02/11 09:45:20;;;;;;;25.25;14.15;;;8.50;99.90;;;;;;5019659;28;20048;-64
2023/02/11 09:47:51;;;;;;;32.67;15.02;;;8.60;99.90;;;;;;5024235;28;20041;-64
2023/02/11 09:50:32;;;;;;;30.58;14.65;;;8.60;99.90;;;;;;5021895;28;20037;-64
2023/02/11 09:53:09;;;;;;;29.58;13.18;;;8.60;99.90;;;;;;5010945;28;20099;-63
2023/02/11 09:55:40;;;;;;;25.25;13.68;;;8.70;99.90;;;;;;5014920;28;20107;-69
2023/02/11 09:58:15;;;;;;;30.97;13.83;;;8.80;99.90;;;;;;5004690;28;20045;-64
2023/02/11 10:00:59;;;;;;;24.60;13.30;;;8.80;99.90;;;;;;5021669;28;20296;-64
2023/02/11 10:03:52;;;;;;;25.58;12.45;;;8.70;99.90;;;;;;5020888;28;20044;-64
2023/02/11 10:06:43;;;;;;;27.90;11.95;;;8.80;99.90;;;;;;4993081;28;20088;-63
2023/02/11 10:09:20;;;;;;;23.20;12.13;;;8.80;99.90;;;;;;5022922;28;20106;-63
2023/02/11 10:11:58;;;;;;;25.23;12.23;;;8.80;99.90;;;;;;5015170;28;20571;-63
2023/02/11 10:15:11;;;;;;;30.05;12.75;;;8.90;99.90;;;;;;4998219;28;20441;-62
2023/02/11 10:18:12;;;;;;;54.60;32.30;;;8.90;99.90;;;;;;4990121;28;20272;-65
2023/02/11 10:21:07;;;;;;;27.05;12.88;;;8.90;99.90;;;;;;5009719;28;20038;-64
2023/02/11 10:23:38;;;;;;;25.98;11.55;;;8.90;99.90;;;;;;4999127;28;20057;-61
2023/02/11 10:26:12;;;;;;;27.58;12.13;;;8.90;99.90;;;;;;5011742;28;20053;-64
2023/02/11 10:28:40;;;;;;;26.27;12.05;;;9.00;99.90;;;;;;5007392;28;20495;-63
2023/02/11 10:31:08;;;;;;;24.90;11.85;;;9.00;99.90;;;;;;5001565;28;20046;-64
2023/02/11 10:33:38;;;;;;;23.83;11.75;;;9.00;99.90;;;;;;5015759;28;20052;-64
2023/02/11 10:36:04;;;;;;;21.90;11.63;;;9.10;99.90;;;;;;4993693;28;20049;-64
2023/02/11 10:38:31;;;;;;;26.17;11.10;;;9.00;99.90;;;;;;5019004;28;20679;-63
2023/02/11 10:40:57;;;;;;;26.85;11.75;;;9.00;99.90;;;;;;4992209;28;20096;-64
2023/02/11 10:43:26;;;;;;;24.20;11.80;;;9.10;99.90;;;;;;5004955;28;20041;-64
2023/02/11 10:45:53;;;;;;;24.90;11.90;;;9.10;99.90;;;;;;4998444;28;20052;-63
2023/02/11 10:48:48;;;;;;;24.20;12.27;;;9.00;99.90;;;;;;5001634;28;20030;-64
2023/02/11 10:51:33;;;;;;;25.70;10.98;;;9.10;99.90;;;;;;5000676;28;20041;-64
2023/02/11 10:54:08;;;;;;;25.80;12.23;;;9.10;99.90;;;;;;5006197;28;20041;-64
2023/02/11 10:56:44;;;;;;;25.33;11.55;;;9.10;99.90;;;;;;5017260;28;20049;-65
2023/02/11 10:59:22;;;;;;;25.55;12.05;;;9.10;99.90;;;;;;5026044;28;20251;-64
2023/02/11 11:01:55;;;;;;;21.38;10.60;;;9.00;99.90;;;;;;5023818;28;20048;-64
2023/02/11 11:04:30;;;;;;;24.10;11.57;;;9.00;99.90;;;;;;4995785;28;20053;-64
2023/02/11 11:07:16;;;;;;;23.38;12.15;;;9.10;99.90;;;;;;5023740;28;20037;-64
2023/02/11 11:10:21;;;;;;;23.08;11.65;;;9.10;99.90;;;;;;5007003;28;20037;-65
2023/02/11 11:12:47;;;;;;;28.40;12.27;;;9.10;99.90;;;;;;5016030;28;20068;-65
2023/02/11 11:15:20;;;;;;;21.73;11.50;;;9.10;99.90;;;;;;5021868;28;20504;-63
2023/02/11 11:17:47;;;;;;;26.90;12.30;;;9.20;99.90;;;;;;5009271;28;20128;-63
2023/02/11 11:20:34;;;;;;;23.35;11.25;;;9.30;99.90;;;;;;5008509;28;20053;-64
2023/02/11 11:23:18;;;;;;;21.42;10.75;;;9.20;99.90;;;;;;5006506;28;20085;-65
2023/02/11 11:25:58;;;;;;;24.05;11.35;;;9.30;99.90;;;;;;5014883;28;20038;-63
2023/02/11 11:28:26;;;;;;;23.17;11.30;;;9.30;99.90;;;;;;5020327;28;20030;-62
2023/02/11 11:30:54;;;;;;;18.60;10.88;;;9.40;99.90;;;;;;5000095;28;20048;-65
2023/02/11 11:33:33;;;;;;;20.52;11.55;;;9.40;99.90;;;;;;4994802;28;20041;-67
2023/02/11 11:36:00;;;;;;;23.65;11.60;;;9.40;99.90;;;;;;5009208;28;21770;-66
2023/02/11 11:38:28;;;;;;;22.10;11.75;;;9.40;99.90;;;;;;5021373;28;20041;-67
2023/02/11 11:41:18;;;;;;;21.70;11.05;;;9.40;99.90;;;;;;4995278;28;20326;-65
2023/02/11 11:44:22;;;;;;;19.02;10.13;;;9.40;99.90;;;;;;5009519;28;20567;-63
2023/02/11 11:46:53;;;;;;;25.05;11.32;;;9.50;99.90;;;;;;5016081;28;20038;-67
2023/02/11 11:49:32;;;;;;;21.83;10.82;;;9.50;99.90;;;;;;5006026;28;20395;-67
2023/02/11 11:52:25;;;;;;;24.48;10.80;;;9.50;99.90;;;;;;4998284;28;20121;-67
2023/02/11 11:55:16;;;;;;;20.38;11.05;;;9.50;99.90;;;;;;5004541;28;20516;-63
2023/02/11 11:57:42;;;;;;;21.50;10.30;;;9.60;99.90;;;;;;5014122;28;20045;-66
2023/02/11 12:00:16;;;;;;;24.63;11.27;;;9.60;99.90;;;;;;5008021;28;20049;-67
2023/02/11 12:02:50;;;;;;;20.02;9.95;;;9.70;99.90;;;;;;5009900;28;20038;-66
2023/02/11 12:05:50;;;;;;;25.10;10.50;;;9.70;99.90;;;;;;4998075;28;20037;-66
2023/02/11 12:08:41;;;;;;;21.30;10.13;;;9.70;99.90;;;;;;4993048;28;20041;-64
2023/02/11 12:11:32;;;;;;;23.33;9.43;;;9.80;99.90;;;;;;5018895;28;20484;-63
2023/02/11 12:14:23;;;;;;;19.42;9.52;;;9.80;99.90;;;;;;5018688;28;20041;-63
2023/02/11 12:16:49;;;;;;;18.80;10.38;;;9.80;99.90;;;;;;5002089;28;20049;-64
2023/02/11 12:19:40;;;;;;;20.38;9.80;;;9.90;99.90;;;;;;5003087;28;20125;-64
2023/02/11 12:22:22;;;;;;;20.75;9.95;;;9.80;99.90;;;;;;4999509;28;20053;-63
2023/02/11 12:25:26;;;;;;;17.33;9.27;;;9.80;99.90;;;;;;4998891;28;20401;-65
2023/02/11 12:28:04;;;;;;;17.77;8.32;;;9.80;99.90;;;;;;5003786;28;20100;-63
2023/02/11 12:30:52;;;;;;;18.50;8.35;;;9.80;99.90;;;;;;4992920;28;20416;-66
2023/02/11 12:33:56;;;;;;;14.52;7.05;;;9.90;99.90;;;;;;4999234;28;20045;-63
2023/02/11 12:36:53;;;;;;;19.17;7.35;;;9.80;99.90;;;;;;4981074;28;20557;-64
2023/02/11 12:39:37;;;;;;;17.90;7.75;;;9.80;99.90;;;;;;4962907;28;20132;-64
2023/02/11 12:45:37;;;;;;;18.75;6.38;;;9.90;99.90;;;;;;5005256;28;20054;-63
2023/02/11 12:48:15;;;;;;;15.02;6.60;;;9.90;99.90;;;;;;4996357;28;20050;-67
2023/02/11 12:51:09;;;;;;;19.65;6.07;;;10.00;99.90;;;;;;5023543;28;20103;-63
2023/02/11 12:53:54;;;;;;;13.90;5.43;;;10.00;99.90;;;;;;5021977;28;20095;-62
2023/02/11 12:56:52;;;;;;;18.98;9.85;;;10.00;99.90;;;;;;5008425;28;20437;-64
2023/02/11 12:59:47;;;;;;;17.92;6.20;;;10.00;99.90;;;;;;5017765;28;20397;-62
2023/02/11 13:02:45;;;;;;;12.05;5.35;;;10.10;99.90;;;;;;4998758;28;20568;-66
2023/02/11 13:05:28;;;;;;;13.43;5.80;;;10.10;99.90;;;;;;5015573;28;20096;-62
2023/02/11 13:08:05;;;;;;;14.65;7.00;;;10.10;99.90;;;;;;5018729;28;20090;-63